Impacts TAF Board INFO
FOR SITUATIONAL AWARENESS. NOT TO BE USED FOR FLIGHT PLANNING PURPOSES.
IDs:

KBOS - Boston/Logan Intl, MA, US

Issued at 1121 UTC 20 Jan 2017
Updated at 1402 UTC 20 Jan 2017
Potential Impact None Slight Moderate High
Time1354Z 20/15Z 20/16Z 20/17Z 20/18Z 20/19Z 20/20Z 20/21Z 20/22Z 20/23Z 21/00Z 21/01Z 21/02Z 21/03Z
Type OBS PRVL PRVL PRVL PRVL PRVL PRVL PRVL PRVL PRVL PRVL PRVL PRVL PRVL
VIS 10 >6 >6 >6 >6 >6 >6 >6 >6 >6 >6 >6 >6 >6
CIG 31 30 30 30 30 30 30 30 35 35 35 35 35 35
Cover OVC OVC OVC OVC BKN BKN BKN BKN BKN BKN BKN BKN BKN BKN
FltCat VFR MVFR MVFR MVFR MVFR MVFR MVFR MVFR VFR VFR VFR VFR VFR VFR
WX -- -- -- -- -- -- -- -- -- -- -- -- -- --
WDir 330 290 290 290 100 100 100 100 VRB VRB VRB VRB VRB VRB
WSpd 3 5 5 5 4 4 4 4 3 3 3 3 3 3
WGst -- -- -- -- -- -- -- -- -- -- -- -- -- --

Raw TAF
KBOS 201121Z 2012/2118 29005KT P6SM OVC030
  FM201800 10004KT P6SM BKN030
  FM202200 VRB03KT P6SM BKN035
  FM210600 20004KT 6SM BR BKN015
  FM211700 24006KT P6SM BKN040


Raw METAR
KBOS 201354Z 33003KT 10SM OVC031 03/M01 A3004 RMK AO2 SLP171 T00281006
KBOS 201254Z 36004KT 10SM OVC031 02/M01 A3003 RMK AO2 SLP168 T00221011
KBOS 201154Z 31003KT 10SM OVC031 02/M01 A3002 RMK AO2 SLP165 T00221011 10022 20011 53001

METAR Board
Radar Display
Forecast Discussion

FOR SITUATIONAL AWARENESS. NOT TO BE USED FOR FLIGHT PLANNING PURPOSES.

Page loaded:  14:02 UTC  |   06:02 AM Pacific  |   07:02 AM Mountain  |   08:02 AM Central  |   09:02 AM Eastern

 

ADVISORIES

FORECASTS

FORECASTS

OBSERVATIONS

USER TOOLS

ABOUT US